Sail Away — P3PB9 — position and weather

sailwx.info

Track history (hours):
 
Tides and Currents Weather Stations Pressure Air Temp Water Temp Dewpoint Dewpoint Depression Visibility Wind Speed Wind Dir Waves Ship Positions

Sail Away

Last reported at 2017-Aug-23 11:24 UTC. Time now 2017-Nov-21 21:22 UTC.
Position N 34°36' E 033°01'.
Warning: this ship's position is months out of date.

Length 25 m.

Type: . MMSI: 212983061.

Date/timePositionNaut miles runAvg speedWind from/ knotsBaromVisibWave heightAir tempDewpointWater temp
2017-Aug-23 11:24N 34°36' E 033°01'0 0.0
2017-Aug-23 11:00N 34°36' E 033°01'2 1.0
2017-Aug-23 08:34N 34°34' E 033°03'0 6.1
2017-Aug-23 08:30N 34°35' E 033°02'3 6.1
2017-Aug-23 08:00N 34°38' E 033°03'3 0.1
2017-Aug-22 13:29N 34°40' E 033°03'2 4.4
2017-Aug-22 13:00N 34°38' E 033°02'2 4.2
2017-Aug-22 12:25N 34°36' E 033°01'0 0.0
2017-Aug-22 11:55N 34°36' E 033°01'0 0.0
2017-Aug-22 11:28N 34°36' E 033°01'0 0.0
2017-Aug-22 10:58N 34°36' E 033°01'0 0.1
2017-Aug-22 10:27N 34°36' E 033°01'1 0.7
2017-Aug-22 08:37N 34°35' E 033°02'2 6.4
2017-Aug-22 08:23N 34°36' E 033°01'2 5.8
2017-Aug-22 08:00N 34°38' E 033°01'2 0.1
2017-Aug-20 18:41N 34°40' E 033°03'0 0.6
2017-Aug-20 18:30N 34°40' E 033°03'1 1.2
2017-Aug-20 17:47N 34°41' E 033°03'1 3.5
2017-Aug-20 17:30N 34°40' E 033°03'2 4.3
2017-Aug-20 17:00N 34°38' E 033°02'2 4.1
2017-Aug-20 16:28N 34°36' E 033°01'0 0.0
2017-Aug-20 15:58N 34°36' E 033°01'0 0.0
2017-Aug-20 15:25N 34°36' E 033°01'2 5.0
2017-Aug-20 15:00N 34°38' E 033°01'3 4.6
2017-Aug-20 14:28N 34°40' E 033°03'0 0.1
2017-Aug-20 13:50N 34°40' E 033°03'0 0.0
2017-Aug-20 13:29N 34°40' E 033°03'0 0.2
2017-Aug-20 12:59N 34°40' E 033°03'1 2.2
2017-Aug-20 12:30N 34°39' E 033°03'3 1.6
2017-Aug-20 10:25N 34°36' E 033°01'2 1.1
2017-Aug-20 08:38N 34°35' E 033°02'1 6.0
2017-Aug-20 08:29N 34°36' E 033°02'3 6.0
2017-Aug-20 08:00N 34°39' E 033°02'2 0.0
2017-Aug-18 14:39N 34°40' E 033°03'2 2.9
2017-Aug-18 14:00N 34°38' E 033°02'3 2.1
2017-Aug-18 12:38N 34°36' E 033°01'1 1.6
2017-Aug-18 12:15N 34°36' E 033°01'1 0.5
2017-Aug-18 09:52N 34°35' E 033°02'2 5.0
2017-Aug-18 09:30N 34°36' E 033°02'3 6.2
2017-Aug-18 09:00N 34°39' E 033°02'1 0.5
2017-Aug-18 07:29N 34°40' E 033°03'0 0.0
2017-Aug-17 13:00N 34°40' E 033°03'2 3.0
2017-Aug-17 12:30N 34°39' E 033°02'3 1.4
2017-Aug-17 10:11N 34°36' E 033°01'2 0.9
2017-Aug-17 08:21N 34°35' E 033°02'2 6.1
2017-Aug-17 08:00N 34°37' E 033°02'3 0.2
2017-Aug-16 12:52N 34°40' E 033°03'1 3.9
2017-Aug-16 12:29N 34°39' E 033°02'3 5.4
2017-Aug-16 11:59N 34°37' E 033°01'1 1.1
2017-Aug-16 11:25N 34°36' E 033°01'0 0.0
2017-Aug-16 10:55N 34°36' E 033°01'0 0.0
2017-Aug-16 10:28N 34°36' E 033°01'1 0.6
2017-Aug-16 08:11N 34°36' E 033°02'1 6.5
2017-Aug-16 08:00N 34°38' E 033°02'3 0.1
2017-Aug-14 12:54N 34°40' E 033°03'1 2.5
2017-Aug-14 12:30N 34°39' E 033°03'4 1.6
2017-Aug-14 10:12N 34°36' E 033°01'2 1.0
2017-Aug-14 08:16N 34°35' E 033°02'2 6.2
2017-Aug-14 08:00N 34°36' E 033°02'3 6.4
2017-Aug-14 07:31N 34°40' E 033°03'1 0.0
2017-Aug-13 13:10N 34°40' E 033°03'0 0.0
2017-Aug-13 13:00N 34°40' E 033°03'1 1.7
2017-Aug-13 12:30N 34°39' E 033°03'  
Track history (hours):
 
Tides and Currents Weather Stations Pressure Air Temp Water Temp Dewpoint Dewpoint Depression Visibility Wind Speed Wind Dir Waves Ship Positions

Sail Away

Last reported at 2017-Aug-23 11:24 UTC. Time now 2017-Nov-21 21:22 UTC.
Position N 34°36' E 033°01'.
Warning: this ship's position is months out of date.

Length 25 m.

Type: . MMSI: 212983061.

Date/timePositionNaut miles runAvg speedWind from/ knotsBaromVisibWave heightAir tempDewpointWater temp
2017-Aug-23 11:24N 34°36' E 033°01'0 0.0
2017-Aug-23 11:00N 34°36' E 033°01'2 1.0
2017-Aug-23 08:34N 34°34' E 033°03'0 6.1
2017-Aug-23 08:30N 34°35' E 033°02'3 6.1
2017-Aug-23 08:00N 34°38' E 033°03'3 0.1
2017-Aug-22 13:29N 34°40' E 033°03'2 4.4
2017-Aug-22 13:00N 34°38' E 033°02'2 4.2
2017-Aug-22 12:25N 34°36' E 033°01'0 0.0
2017-Aug-22 11:55N 34°36' E 033°01'0 0.0
2017-Aug-22 11:28N 34°36' E 033°01'0 0.0
2017-Aug-22 10:58N 34°36' E 033°01'0 0.1
2017-Aug-22 10:27N 34°36' E 033°01'1 0.7
2017-Aug-22 08:37N 34°35' E 033°02'2 6.4
2017-Aug-22 08:23N 34°36' E 033°01'2 5.8
2017-Aug-22 08:00N 34°38' E 033°01'2 0.1
2017-Aug-20 18:41N 34°40' E 033°03'0 0.6
2017-Aug-20 18:30N 34°40' E 033°03'1 1.2
2017-Aug-20 17:47N 34°41' E 033°03'1 3.5
2017-Aug-20 17:30N 34°40' E 033°03'2 4.3
2017-Aug-20 17:00N 34°38' E 033°02'2 4.1
2017-Aug-20 16:28N 34°36' E 033°01'0 0.0
2017-Aug-20 15:58N 34°36' E 033°01'0 0.0
2017-Aug-20 15:25N 34°36' E 033°01'2 5.0
2017-Aug-20 15:00N 34°38' E 033°01'3 4.6
2017-Aug-20 14:28N 34°40' E 033°03'0 0.1
2017-Aug-20 13:50N 34°40' E 033°03'0 0.0
2017-Aug-20 13:29N 34°40' E 033°03'0 0.2
2017-Aug-20 12:59N 34°40' E 033°03'1 2.2
2017-Aug-20 12:30N 34°39' E 033°03'3 1.6
2017-Aug-20 10:25N 34°36' E 033°01'2 1.1
2017-Aug-20 08:38N 34°35' E 033°02'1 6.0
2017-Aug-20 08:29N 34°36' E 033°02'3 6.0
2017-Aug-20 08:00N 34°39' E 033°02'2 0.0
2017-Aug-18 14:39N 34°40' E 033°03'2 2.9
2017-Aug-18 14:00N 34°38' E 033°02'3 2.1
2017-Aug-18 12:38N 34°36' E 033°01'1 1.6
2017-Aug-18 12:15N 34°36' E 033°01'1 0.5
2017-Aug-18 09:52N 34°35' E 033°02'2 5.0
2017-Aug-18 09:30N 34°36' E 033°02'3 6.2
2017-Aug-18 09:00N 34°39' E 033°02'1 0.5
2017-Aug-18 07:29N 34°40' E 033°03'0 0.0
2017-Aug-17 13:00N 34°40' E 033°03'2 3.0
2017-Aug-17 12:30N 34°39' E 033°02'3 1.4
2017-Aug-17 10:11N 34°36' E 033°01'2 0.9
2017-Aug-17 08:21N 34°35' E 033°02'2 6.1
2017-Aug-17 08:00N 34°37' E 033°02'3 0.2
2017-Aug-16 12:52N 34°40' E 033°03'1 3.9
2017-Aug-16 12:29N 34°39' E 033°02'3 5.4
2017-Aug-16 11:59N 34°37' E 033°01'1 1.1
2017-Aug-16 11:25N 34°36' E 033°01'0 0.0
2017-Aug-16 10:55N 34°36' E 033°01'0 0.0
2017-Aug-16 10:28N 34°36' E 033°01'1 0.6
2017-Aug-16 08:11N 34°36' E 033°02'1 6.5
2017-Aug-16 08:00N 34°38' E 033°02'3 0.1
2017-Aug-14 12:54N 34°40' E 033°03'1 2.5
2017-Aug-14 12:30N 34°39' E 033°03'4 1.6
2017-Aug-14 10:12N 34°36' E 033°01'2 1.0
2017-Aug-14 08:16N 34°35' E 033°02'2 6.2
2017-Aug-14 08:00N 34°36' E 033°02'3 6.4
2017-Aug-14 07:31N 34°40' E 033°03'1 0.0
2017-Aug-13 13:10N 34°40' E 033°03'0 0.0
2017-Aug-13 13:00N 34°40' E 033°03'1 1.7
2017-Aug-13 12:30N 34°39' E 033°03'  

Dump ship's entire track history